Alpena, Michigan
Current Conditions -  °F | °C
As of 4:54 PM on Thursday 23 Oct 2014 (Local Time) from KAPN Reporting Station
Clear Clear  
Wind Chill:   Ceiling: Unl
Heat Index:   Visibility: 10mi
Dew Point:   Wind: 8mph
Humidity: 71%   Direction: 130°SE
Pressure: 30.11"   Gusts: NA
Location:  45.06°N, 83.44°W
Report Text: KAPN 232054Z AUTO 13007KT 10SM CLR 09/04 A3011 RMK AO2 SLP205 T00940044 56017
Loading
Personal Weather Stations






























Interactive Weather Map
Tropical Storm Tracking
New forecast layout! Learn more

10-Day Weather Forecast

Advertisements
Track Severe Weather on mobile